AirNav   Pilot Hours Calculator
 
 1577 users online  

38MI Chicora Field Airport
Allegan, Michigan, USA

GOING TO ALLEGAN?


FAA INFORMATION EFFECTIVE 30 DECEMBER 2021

Location

FAA Identifier: 38MI
Lat/Long: 42-28-01.0000N 085-58-45.0000W
42-28.016667N 085-58.750000W
42.4669444,-85.9791667
(estimated)
Elevation: 700 ft. / 213 m (estimated)
Variation: 04W (1965)
From city: 7 miles SW of ALLEGAN, MI
Time zone: UTC -5 (UTC -4 during Daylight Saving Time)
Zip code: 49010

Airport Operations

Airport use: Private use. Permission required prior to landing
Activation date: 08/2001
Control tower: no
ARTCC: CHICAGO CENTER
FSS: LANSING FLIGHT SERVICE STATION
Attendance: UNATNDD
Segmented circle: no

Airport Communications

WX AWOS-3 at LWA (14 nm SW): 118.025 (269-637-7016)
WX ASOS at BIV (17 nm N): 119.025 (616-394-0190)

Nearby radio navigation aids

VOR radial/distance  VOR name  Freq  Var
PMMr089/5.6PULLMAN VOR/DME112.1000E
ELXr018/20.4KEELER VOR/DME116.6000E
AZOr307/23.4KALAMAZOO VOR/DME109.0001W
VIOr232/28.7VICTORY VOR/DME115.9504W

Airport Services

Oil available: ANNC ON 4MI3 CTAF PER LOA.

Runway Information

Runway 10/28

Dimensions: 2400 x 60 ft. / 732 x 18 m
Surface: asphalt/turf
CENTER 2400 FT BY 30 FT IS ASPH, AND 15 FT WIDTH ON EACH SIDE IS TURF.
RUNWAY 10  RUNWAY 28
Traffic pattern: leftright
Displaced threshold: no400 ft.
DSPLCD THLD MKD WITH HASH MKS PAINTED ON RY.

Airport Ownership and Management from official FAA records

Ownership: Privately-owned
Owner: JAMES MUENZER
665 44TH ST
ALLEGAN, MI 49010-9331
Phone 616-521-4544
Manager: JAMES MUENZER
665 44TH ST
ALLEGAN, MI 49010-9331
Phone 616-521-4544

Airport Operational Statistics

Aircraft based on the field: 1
Single engine airplanes: 1
    

Additional Remarks

FOR CD CTC GREAT LAKES APCH AT 269-459-3344, WHEN APCH CLSD CTC CHICAGO ARTCC AT 630-906-8921.

Instrument Procedures

There are no published instrument procedures at 38MI.

Some nearby airports with instrument procedures:

35D - Padgham Field Airport (8 nm NE)
KLWA - South Haven Area Regional Airport (14 nm SW)
KBIV - West Michigan Regional Airport (17 nm N)
KAZO - Kalamazoo/Battle Creek International Airport (24 nm SE)
KBEH - Southwest Michigan Regional Airport (28 nm SW)
 
Loc | Ops | Rwys | IFR | FBO | Links
Com | Nav | Svcs | Stats | Notes
Area around 38MI (Chicora Field Airport)
 
Road maps at: MapQuest Bing Google
 
Aerial photo
WARNING: Photo may not be current or correct
Aerial photo of 38MI (Chicora Field Airport)
Photo by Roy Carlson, Plainwell MI
Photo taken 16-Oct-2005

Do you have a better or more recent aerial photo of Chicora Field Airport that you would like to share? If so, please send us your photo.

 
Sectional chart

 
Airport distance calculator
Flying to Chicora Field Airport? Find the distance to fly.

From to 38MI

Sunrise and sunset
Times for 20-Jan-2022
 Local
(UTC-5)
 Zulu
(UTC)
Morning civil twilight07:3812:38
Sunrise08:0913:09
Sunset17:4122:41
Evening civil twilight18:1223:12

Current date and time
Zulu (UTC)  20-Jan-2022 23:05:09
Local (UTC-5)  20-Jan-2022 18:05:09
 
METAR
KLWA 
14nm SW 
202255Z AUTO 00000KT 7SM -SN SCT009 BKN027 OVC033 M08/M10 A3052 RMK AO2 T10831096
KBIV 
18nm N 
202253Z AUTO 03005KT 10SM OVC033 M08/M14 A3052 RMK AO2 SLP349 T10781144
KAZO 
24nm SE 
202253Z 02007KT 10SM OVC040 M08/M16 A3050 RMK AO2 SLP347 T10781156
KBEH 
28nm SW 
202253Z AUTO 09003KT 6SM -SN FEW024 OVC035 M07/M10 A3052 RMK AO2 SLP347 P0000 T10721100
TAF
KAZO 
24nm SE 
201830Z 2019/2118 36008KT P6SM BKN040 FM210600 16006KT P6SM BKN035
NOTAMs
Click for the latest NOTAMs
NOTAMs are issued by the DoD/FAA and will open in a separate window not controlled by AirNav.

 

 
 

Would you like to see your business listed on this page?

 If your business provides an interesting product or service to pilots, flight crews, aircraft, or users of the Chicora Field Airport, you should consider listing it here.  To start the listing process, click on the button below
 
Add a business
 

Other Pages about Chicora Field Airport

Update a link
 
Copyright © AirNav, LLC. All rights reserved. Privacy Policy  Contact